Station Historical Data
Daily Summary for June 17, 2017 Units:  Both    English   Metric
« Previous Day
Next Day »
Daily Weekly Monthly Yearly Custom
  High: Low: Average:
Temperature: 90.5 °F /  32.5 °C 70.2 °F /  21.2 °C 80.2 °F /  26.8 °C
Dew Point: 68.5 °F /  20.3 °C 61.9 °F /  16.6 °C 65.1 °F /  18.4 °C
Humidity: 79% 42% 62%
Wind Speed: 10.0mph /  16.1km/h - 2.8mph /  4.5km/h
Wind Gust: 14.0mph /  22.5km/h - -
Wind- - SSW
Pressure: 29.82 in /  1009.7 hPa 29.68 in /  1005 hPa -
Precipitation: 0.00 in /  0 mm    
Historical Graphs
 
 
Tabular Data for June 17, 2017
Time Temperature Dew Point Pressure Wind Wind Speed Wind Gust Humidity Rainfall Rate (Hourly)
00:04 70.7 °F /  21.5 °C 62.0 °F /  16.7 °C 29.82in /  1009.7hPa Calm   3.0mph /  4.8km/h 74% 0.00in /  0mm
00:09 70.6 °F /  21.4 °C 61.9 °F /  16.6 °C 29.82in /  1009.7hPa Calm   3.0mph /  4.8km/h 74% 0.00in /  0mm
00:14 70.6 °F /  21.4 °C 61.9 °F /  16.6 °C 29.82in /  1009.7hPa Calm     74% 0.00in /  0mm
00:19 70.4 °F /  21.3 °C 62.1 °F /  16.7 °C 29.82in /  1009.7hPa Calm     75% 0.00in /  0mm
00:24 70.2 °F /  21.2 °C 62.3 °F /  16.8 °C 29.81in /  1009.4hPa Calm     76% 0.00in /  0mm
00:29 70.2 °F /  21.2 °C 62.3 °F /  16.8 °C 29.81in /  1009.4hPa Calm     76% 0.00in /  0mm
00:34 70.3 °F /  21.3 °C 62.4 °F /  16.9 °C 29.81in /  1009.4hPa Calm   3.0mph /  4.8km/h 76% 0.00in /  0mm
00:44 70.8 °F /  21.6 °C 62.5 °F /  16.9 °C 29.82in /  1009.7hPa South 1.0mph /  1.6km/h 2.0mph /  3.2km/h 75% 0.00in /  0mm
00:49 70.7 °F /  21.5 °C 62.4 °F /  16.9 °C 29.81in /  1009.4hPa Calm   1.0mph /  1.6km/h 75% 0.00in /  0mm
00:54 70.8 °F /  21.6 °C 62.5 °F /  16.9 °C 29.81in /  1009.4hPa South 1.0mph /  1.6km/h 1.0mph /  1.6km/h 75% 0.00in /  0mm
00:59 70.8 °F /  21.6 °C 62.5 °F /  16.9 °C 29.81in /  1009.4hPa Calm   1.0mph /  1.6km/h 75% 0.00in /  0mm
01:04 71.0 °F /  21.7 °C 62.3 °F /  16.8 °C 29.81in /  1009.4hPa Calm     74% 0.00in /  0mm
01:09 71.2 °F /  21.8 °C 62.5 °F /  16.9 °C 29.81in /  1009.4hPa Calm     74% 0.00in /  0mm
01:14 71.3 °F /  21.8 °C 62.6 °F /  17 °C 29.81in /  1009.4hPa Calm   2.0mph /  3.2km/h 74% 0.00in /  0mm
01:19 71.4 °F /  21.9 °C 62.7 °F /  17.1 °C 29.80in /  1009hPa South 1.0mph /  1.6km/h 3.0mph /  4.8km/h 74% 0.00in /  0mm
01:24 71.5 °F /  21.9 °C 62.8 °F /  17.1 °C 29.80in /  1009hPa South 1.0mph /  1.6km/h 4.0mph /  6.4km/h 74% 0.00in /  0mm
01:29 71.3 °F /  21.8 °C 62.6 °F /  17 °C 29.80in /  1009hPa Calm   2.0mph /  3.2km/h 74% 0.00in /  0mm
01:34 71.2 °F /  21.8 °C 62.9 °F /  17.2 °C 29.80in /  1009hPa Calm   2.0mph /  3.2km/h 75% 0.00in /  0mm
01:39 71.2 °F /  21.8 °C 62.9 °F /  17.2 °C 29.80in /  1009hPa Calm   3.0mph /  4.8km/h 75% 0.00in /  0mm
01:44 71.2 °F /  21.8 °C 62.9 °F /  17.2 °C 29.80in /  1009hPa South 1.0mph /  1.6km/h 3.0mph /  4.8km/h 75% 0.00in /  0mm
01:49 71.2 °F /  21.8 °C 63.2 °F /  17.3 °C 29.80in /  1009hPa SSW 4.0mph /  6.4km/h 5.0mph /  8km/h 76% 0.00in /  0mm
01:54 71.3 °F /  21.8 °C 63.3 °F /  17.4 °C 29.80in /  1009hPa SSW 3.0mph /  4.8km/h 5.0mph /  8km/h 76% 0.00in /  0mm
01:59 71.4 °F /  21.9 °C 63.4 °F /  17.4 °C 29.79in /  1008.7hPa South 1.0mph /  1.6km/h 5.0mph /  8km/h 76% 0.00in /  0mm
02:04 71.4 °F /  21.9 °C 63.4 °F /  17.4 °C 29.79in /  1008.7hPa SSW 3.0mph /  4.8km/h 5.0mph /  8km/h 76% 0.00in /  0mm
02:09 71.4 °F /  21.9 °C 63.4 °F /  17.4 °C 29.79in /  1008.7hPa South 2.0mph /  3.2km/h 5.0mph /  8km/h 76% 0.00in /  0mm
02:14 71.4 °F /  21.9 °C 63.4 °F /  17.4 °C 29.79in /  1008.7hPa South 1.0mph /  1.6km/h 4.0mph /  6.4km/h 76% 0.00in /  0mm
02:19 71.3 °F /  21.8 °C 63.7 °F /  17.6 °C 29.79in /  1008.7hPa SSW 1.0mph /  1.6km/h 5.0mph /  8km/h 77% 0.00in /  0mm
02:24 71.4 °F /  21.9 °C 63.8 °F /  17.7 °C 29.78in /  1008.4hPa South 2.0mph /  3.2km/h 5.0mph /  8km/h 77% 0.00in /  0mm
02:29 71.4 °F /  21.9 °C 63.8 °F /  17.7 °C 29.78in /  1008.4hPa SSW 2.0mph /  3.2km/h 4.0mph /  6.4km/h 77% 0.00in /  0mm
02:34 71.5 °F /  21.9 °C 63.9 °F /  17.7 °C 29.79in /  1008.7hPa SSW 1.0mph /  1.6km/h 5.0mph /  8km/h 77% 0.00in /  0mm
02:39 71.6 °F /  22 °C 64.0 °F /  17.8 °C 29.78in /  1008.4hPa SSW 2.0mph /  3.2km/h 5.0mph /  8km/h 77% 0.00in /  0mm
02:44 71.8 °F /  22.1 °C 64.2 °F /  17.9 °C 29.79in /  1008.7hPa SSW 2.0mph /  3.2km/h 7.0mph /  11.3km/h 77% 0.00in /  0mm
02:49 71.9 °F /  22.2 °C 64.3 °F /  17.9 °C 29.79in /  1008.7hPa SSW 2.0mph /  3.2km/h 7.0mph /  11.3km/h 77% 0.00in /  0mm
02:54 72.0 °F /  22.2 °C 64.4 °F /  18 °C 29.79in /  1008.7hPa SSW 2.0mph /  3.2km/h 7.0mph /  11.3km/h 77% 0.00in /  0mm
02:59 72.1 °F /  22.3 °C 64.5 °F /  18.1 °C 29.79in /  1008.7hPa South 4.0mph /  6.4km/h 7.0mph /  11.3km/h 77% 0.00in /  0mm
03:04 72.1 °F /  22.3 °C 64.5 °F /  18.1 °C 29.78in /  1008.4hPa South 2.0mph /  3.2km/h 6.0mph /  9.7km/h 77% 0.00in /  0mm
03:09 72.0 °F /  22.2 °C 64.4 °F /  18 °C 29.78in /  1008.4hPa SSW 3.0mph /  4.8km/h 6.0mph /  9.7km/h 77% 0.00in /  0mm
03:14 72.0 °F /  22.2 °C 64.4 °F /  18 °C 29.78in /  1008.4hPa SSW 2.0mph /  3.2km/h 7.0mph /  11.3km/h 77% 0.00in /  0mm
03:19 72.0 °F /  22.2 °C 64.4 °F /  18 °C 29.78in /  1008.4hPa South 2.0mph /  3.2km/h 5.0mph /  8km/h 77% 0.00in /  0mm
03:24 71.9 °F /  22.2 °C 64.3 °F /  17.9 °C 29.78in /  1008.4hPa South 1.0mph /  1.6km/h 5.0mph /  8km/h 77% 0.00in /  0mm
03:29 71.7 °F /  22.1 °C 64.1 °F /  17.8 °C 29.78in /  1008.4hPa SW 2.0mph /  3.2km/h 6.0mph /  9.7km/h 77% 0.00in /  0mm
03:34 71.7 °F /  22.1 °C 64.1 °F /  17.8 °C 29.78in /  1008.4hPa SSW 2.0mph /  3.2km/h 6.0mph /  9.7km/h 77% 0.00in /  0mm
03:39 71.7 °F /  22.1 °C 64.1 °F /  17.8 °C 29.78in /  1008.4hPa SSW 3.0mph /  4.8km/h 6.0mph /  9.7km/h 77% 0.00in /  0mm
03:44 71.7 °F /  22.1 °C 64.1 °F /  17.8 °C 29.78in /  1008.4hPa SSW 3.0mph /  4.8km/h 6.0mph /  9.7km/h 77% 0.00in /  0mm
03:49 71.7 °F /  22.1 °C 64.1 °F /  17.8 °C 29.78in /  1008.4hPa SW 2.0mph /  3.2km/h 5.0mph /  8km/h 77% 0.00in /  0mm
03:54 71.8 °F /  22.1 °C 64.2 °F /  17.9 °C 29.78in /  1008.4hPa SSW 2.0mph /  3.2km/h 5.0mph /  8km/h 77% 0.00in /  0mm
03:59 71.7 °F /  22.1 °C 64.1 °F /  17.8 °C 29.78in /  1008.4hPa SSW 2.0mph /  3.2km/h 3.0mph /  4.8km/h 77% 0.00in /  0mm
04:04 71.7 °F /  22.1 °C 64.1 °F /  17.8 °C 29.78in /  1008.4hPa SSW 3.0mph /  4.8km/h 5.0mph /  8km/h 77% 0.00in /  0mm
04:09 71.8 °F /  22.1 °C 64.2 °F /  17.9 °C 29.78in /  1008.4hPa SSW 2.0mph /  3.2km/h 7.0mph /  11.3km/h 77% 0.00in /  0mm
04:14 71.9 °F /  22.2 °C 64.3 °F /  17.9 °C 29.77in /  1008hPa SSW 2.0mph /  3.2km/h 8.0mph /  12.9km/h 77% 0.00in /  0mm
04:19 72.1 °F /  22.3 °C 64.1 °F /  17.8 °C 29.77in /  1008hPa South 1.0mph /  1.6km/h 9.0mph /  14.5km/h 76% 0.00in /  0mm
04:24 72.1 °F /  22.3 °C 64.1 °F /  17.8 °C 29.77in /  1008hPa SSW 2.0mph /  3.2km/h 6.0mph /  9.7km/h 76% 0.00in /  0mm
04:29 72.1 °F /  22.3 °C 64.1 °F /  17.8 °C 29.77in /  1008hPa SSW 2.0mph /  3.2km/h 7.0mph /  11.3km/h 76% 0.00in /  0mm
04:34 72.1 °F /  22.3 °C 64.1 °F /  17.8 °C 29.78in /  1008.4hPa Calm   4.0mph /  6.4km/h 76% 0.00in /  0mm
04:39 72.0 °F /  22.2 °C 64.4 °F /  18 °C 29.78in /  1008.4hPa SW 2.0mph /  3.2km/h 5.0mph /  8km/h 77% 0.00in /  0mm
04:44 72.0 °F /  22.2 °C 64.4 °F /  18 °C 29.78in /  1008.4hPa SW 2.0mph /  3.2km/h 5.0mph /  8km/h 77% 0.00in /  0mm
04:49 71.9 °F /  22.2 °C 64.3 °F /  17.9 °C 29.78in /  1008.4hPa SW 1.0mph /  1.6km/h 5.0mph /  8km/h 77% 0.00in /  0mm
04:54 71.9 °F /  22.2 °C 64.3 °F /  17.9 °C 29.77in /  1008hPa Calm   3.0mph /  4.8km/h 77% 0.00in /  0mm
04:59 71.6 °F /  22 °C 64.0 °F /  17.8 °C 29.77in /  1008hPa Calm   3.0mph /  4.8km/h 77% 0.00in /  0mm
05:04 71.5 °F /  21.9 °C 63.9 °F /  17.7 °C 29.77in /  1008hPa Calm   3.0mph /  4.8km/h 77% 0.00in /  0mm
05:09 71.4 °F /  21.9 °C 63.8 °F /  17.7 °C 29.78in /  1008.4hPa South 2.0mph /  3.2km/h 5.0mph /  8km/h 77% 0.00in /  0mm
05:14 71.3 °F /  21.8 °C 63.7 °F /  17.6 °C 29.78in /  1008.4hPa South 2.0mph /  3.2km/h 5.0mph /  8km/h 77% 0.00in /  0mm
05:19 71.2 °F /  21.8 °C 64.0 °F /  17.8 °C 29.78in /  1008.4hPa South 2.0mph /  3.2km/h 5.0mph /  8km/h 78% 0.00in /  0mm
05:24 71.1 °F /  21.7 °C 63.9 °F /  17.7 °C 29.78in /  1008.4hPa SSW 1.0mph /  1.6km/h 5.0mph /  8km/h 78% 0.00in /  0mm
05:29 71.1 °F /  21.7 °C 63.9 °F /  17.7 °C 29.79in /  1008.7hPa South 1.0mph /  1.6km/h 3.0mph /  4.8km/h 78% 0.00in /  0mm
05:34 71.0 °F /  21.7 °C 63.8 °F /  17.7 °C 29.78in /  1008.4hPa South 2.0mph /  3.2km/h 3.0mph /  4.8km/h 78% 0.00in /  0mm
05:39 71.0 °F /  21.7 °C 63.8 °F /  17.7 °C 29.78in /  1008.4hPa Calm   3.0mph /  4.8km/h 78% 0.00in /  0mm
05:44 71.0 °F /  21.7 °C 63.8 °F /  17.7 °C 29.78in /  1008.4hPa Calm   5.0mph /  8km/h 78% 0.00in /  0mm
05:49 71.1 °F /  21.7 °C 63.5 °F /  17.5 °C 29.78in /  1008.4hPa Calm   5.0mph /  8km/h 77% 0.00in /  0mm
05:54 71.1 °F /  21.7 °C 63.9 °F /  17.7 °C 29.78in /  1008.4hPa Calm   3.0mph /  4.8km/h 78% 0.00in /  0mm
05:59 71.3 °F /  21.8 °C 63.7 °F /  17.6 °C 29.78in /  1008.4hPa SSE 1.0mph /  1.6km/h 4.0mph /  6.4km/h 77% 0.00in /  0mm
06:04 71.3 °F /  21.8 °C 63.7 °F /  17.6 °C 29.78in /  1008.4hPa SSE 1.0mph /  1.6km/h 3.0mph /  4.8km/h 77% 0.00in /  0mm
06:09 71.2 °F /  21.8 °C 63.6 °F /  17.6 °C 29.79in /  1008.7hPa SSE 2.0mph /  3.2km/h 4.0mph /  6.4km/h 77% 0.00in /  0mm
06:14 71.0 °F /  21.7 °C 63.8 °F /  17.7 °C 29.79in /  1008.7hPa SSE 2.0mph /  3.2km/h 4.0mph /  6.4km/h 78% 0.00in /  0mm
06:19 70.8 °F /  21.6 °C 63.6 °F /  17.6 °C 29.79in /  1008.7hPa SSE 2.0mph /  3.2km/h 5.0mph /  8km/h 78% 0.00in /  0mm
06:24 70.8 °F /  21.6 °C 63.6 °F /  17.6 °C 29.80in /  1009hPa SSE 2.0mph /  3.2km/h 5.0mph /  8km/h 78% 0.00in /  0mm
06:29 70.7 °F /  21.5 °C 63.5 °F /  17.5 °C 29.80in /  1009hPa South 1.0mph /  1.6km/h 4.0mph /  6.4km/h 78% 0.00in /  0mm
06:34 70.6 °F /  21.4 °C 63.4 °F /  17.4 °C 29.80in /  1009hPa South 1.0mph /  1.6km/h 3.0mph /  4.8km/h 78% 0.00in /  0mm
06:39 70.5 °F /  21.4 °C 63.7 °F /  17.6 °C 29.79in /  1008.7hPa Calm     79% 0.00in /  0mm
06:44 70.5 °F /  21.4 °C 63.7 °F /  17.6 °C 29.78in /  1008.4hPa Calm     79% 0.00in /  0mm
06:49 70.6 °F /  21.4 °C 63.8 °F /  17.7 °C 29.79in /  1008.7hPa SSE 1.0mph /  1.6km/h 5.0mph /  8km/h 79% 0.00in /  0mm
06:54 70.7 °F /  21.5 °C 63.9 °F /  17.7 °C 29.79in /  1008.7hPa Calm   3.0mph /  4.8km/h 79% 0.00in /  0mm
06:59 70.8 °F /  21.6 °C 64.0 °F /  17.8 °C 29.79in /  1008.7hPa Calm   4.0mph /  6.4km/h 79% 0.00in /  0mm
07:04 71.1 °F /  21.7 °C 64.3 °F /  17.9 °C 29.79in /  1008.7hPa Calm     79% 0.00in /  0mm
07:09 71.5 °F /  21.9 °C 63.9 °F /  17.7 °C 29.79in /  1008.7hPa South 2.0mph /  3.2km/h 5.0mph /  8km/h 77% 0.00in /  0mm
07:14 71.5 °F /  21.9 °C 63.9 °F /  17.7 °C 29.79in /  1008.7hPa SSE 1.0mph /  1.6km/h 6.0mph /  9.7km/h 77% 0.00in /  0mm
07:19 71.7 °F /  22.1 °C 64.1 °F /  17.8 °C 29.79in /  1008.7hPa SSE 2.0mph /  3.2km/h 6.0mph /  9.7km/h 77% 0.00in /  0mm
07:24 72.2 °F /  22.3 °C 64.6 °F /  18.1 °C 29.79in /  1008.7hPa South 2.0mph /  3.2km/h 5.0mph /  8km/h 77% 0.00in /  0mm
07:29 72.6 °F /  22.6 °C 64.6 °F /  18.1 °C 29.80in /  1009hPa South 3.0mph /  4.8km/h 6.0mph /  9.7km/h 76% 0.00in /  0mm
07:34 73.1 °F /  22.8 °C 64.7 °F /  18.2 °C 29.80in /  1009hPa SSE 2.0mph /  3.2km/h 7.0mph /  11.3km/h 75% 0.00in /  0mm
07:39 73.5 °F /  23.1 °C 64.7 °F /  18.2 °C 29.80in /  1009hPa South 2.0mph /  3.2km/h 7.0mph /  11.3km/h 74% 0.00in /  0mm
07:44 73.7 °F /  23.2 °C 64.5 °F /  18.1 °C 29.80in /  1009hPa SSW 3.0mph /  4.8km/h 8.0mph /  12.9km/h 73% 0.00in /  0mm
07:49 74.1 °F /  23.4 °C 64.5 °F /  18.1 °C 29.80in /  1009hPa SSW 4.0mph /  6.4km/h 8.0mph /  12.9km/h 72% 0.00in /  0mm
07:54 74.2 °F /  23.4 °C 64.6 °F /  18.1 °C 29.80in /  1009hPa South 4.0mph /  6.4km/h 9.0mph /  14.5km/h 72% 0.00in /  0mm
07:59 74.0 °F /  23.3 °C 64.4 °F /  18 °C 29.80in /  1009hPa South 4.0mph /  6.4km/h 9.0mph /  14.5km/h 72% 0.00in /  0mm
08:04 74.0 °F /  23.3 °C 64.8 °F /  18.2 °C 29.79in /  1008.7hPa South 3.0mph /  4.8km/h 9.0mph /  14.5km/h 73% 0.00in /  0mm
08:09 74.8 °F /  23.8 °C 64.8 °F /  18.2 °C 29.79in /  1008.7hPa SW 2.0mph /  3.2km/h 8.0mph /  12.9km/h 71% 0.00in /  0mm
08:14 75.5 °F /  24.2 °C 65.0 °F /  18.3 °C 29.79in /  1008.7hPa South 4.0mph /  6.4km/h 9.0mph /  14.5km/h 70% 0.00in /  0mm
08:19 75.9 °F /  24.4 °C 65.0 °F /  18.3 °C 29.79in /  1008.7hPa South 2.0mph /  3.2km/h 7.0mph /  11.3km/h 69% 0.00in /  0mm
08:24 76.2 °F /  24.6 °C 65.3 °F /  18.5 °C 29.80in /  1009hPa SSW 5.0mph /  8km/h 8.0mph /  12.9km/h 69% 0.00in /  0mm
08:29 76.5 °F /  24.7 °C 66.0 °F /  18.9 °C 29.79in /  1008.7hPa South 3.0mph /  4.8km/h 9.0mph /  14.5km/h 70% 0.00in /  0mm
08:34 77.0 °F /  25 °C 65.2 °F /  18.4 °C 29.79in /  1008.7hPa South 4.0mph /  6.4km/h 7.0mph /  11.3km/h 67% 0.00in /  0mm
08:39 77.5 °F /  25.3 °C 66.1 °F /  18.9 °C 29.79in /  1008.7hPa South 2.0mph /  3.2km/h 7.0mph /  11.3km/h 68% 0.00in /  0mm
08:44 77.6 °F /  25.3 °C 65.3 °F /  18.5 °C 29.79in /  1008.7hPa South 3.0mph /  4.8km/h 8.0mph /  12.9km/h 66% 0.00in /  0mm
08:49 77.4 °F /  25.2 °C 65.6 °F /  18.7 °C 29.79in /  1008.7hPa South 3.0mph /  4.8km/h 9.0mph /  14.5km/h 67% 0.00in /  0mm
08:54 78.0 °F /  25.6 °C 66.2 °F /  19 °C 29.79in /  1008.7hPa South 3.0mph /  4.8km/h 9.0mph /  14.5km/h 67% 0.00in /  0mm
08:59 78.2 °F /  25.7 °C 65.9 °F /  18.8 °C 29.79in /  1008.7hPa South 4.0mph /  6.4km/h 9.0mph /  14.5km/h 66% 0.00in /  0mm
09:04 78.9 °F /  26.1 °C 67.0 °F /  19.4 °C 29.79in /  1008.7hPa South 4.0mph /  6.4km/h 11.0mph /  17.7km/h 67% 0.00in /  0mm
09:09 79.5 °F /  26.4 °C 65.8 °F /  18.8 °C 29.78in /  1008.4hPa WSW 2.0mph /  3.2km/h 9.0mph /  14.5km/h 63% 0.00in /  0mm
09:14 79.6 °F /  26.4 °C 66.8 °F /  19.3 °C 29.78in /  1008.4hPa SSW 4.0mph /  6.4km/h 7.0mph /  11.3km/h 65% 0.00in /  0mm
09:19 79.8 °F /  26.6 °C 66.5 °F /  19.2 °C 29.78in /  1008.4hPa South 4.0mph /  6.4km/h 7.0mph /  11.3km/h 64% 0.00in /  0mm
09:24 80.3 °F /  26.8 °C 66.6 °F /  19.2 °C 29.79in /  1008.7hPa South 5.0mph /  8km/h 8.0mph /  12.9km/h 63% 0.00in /  0mm
09:29 81.0 °F /  27.2 °C 67.2 °F /  19.6 °C 29.78in /  1008.4hPa SSE 4.0mph /  6.4km/h 8.0mph /  12.9km/h 63% 0.00in /  0mm
09:34 81.0 °F /  27.2 °C 66.8 °F /  19.3 °C 29.79in /  1008.7hPa South 3.0mph /  4.8km/h 9.0mph /  14.5km/h 62% 0.00in /  0mm
09:39 80.6 °F /  27 °C 66.4 °F /  19.1 °C 29.79in /  1008.7hPa South 4.0mph /  6.4km/h 9.0mph /  14.5km/h 62% 0.00in /  0mm
09:44 80.5 °F /  26.9 °C 66.3 °F /  19.1 °C 29.79in /  1008.7hPa SSW 4.0mph /  6.4km/h 9.0mph /  14.5km/h 62% 0.00in /  0mm
09:49 80.9 °F /  27.2 °C 66.7 °F /  19.3 °C 29.79in /  1008.7hPa SSW 3.0mph /  4.8km/h 10.0mph /  16.1km/h 62% 0.00in /  0mm
09:54 81.6 °F /  27.6 °C 67.3 °F /  19.6 °C 29.78in /  1008.4hPa SSW 3.0mph /  4.8km/h 10.0mph /  16.1km/h 62% 0.00in /  0mm
09:59 82.1 °F /  27.8 °C 66.8 °F /  19.3 °C 29.78in /  1008.4hPa SSW 3.0mph /  4.8km/h 9.0mph /  14.5km/h 60% 0.00in /  0mm
10:04 82.4 °F /  28 °C 68.1 °F /  20.1 °C 29.78in /  1008.4hPa SSW 3.0mph /  4.8km/h 8.0mph /  12.9km/h 62% 0.00in /  0mm
10:09 83.2 °F /  28.4 °C 66.4 °F /  19.1 °C 29.78in /  1008.4hPa SSE 6.0mph /  9.7km/h 12.0mph /  19.3km/h 57% 0.00in /  0mm
10:14 82.8 °F /  28.2 °C 66.0 °F /  18.9 °C 29.78in /  1008.4hPa South 4.0mph /  6.4km/h 12.0mph /  19.3km/h 57% 0.00in /  0mm
10:19 82.5 °F /  28.1 °C 66.2 °F /  19 °C 29.78in /  1008.4hPa SSW 4.0mph /  6.4km/h 7.0mph /  11.3km/h 58% 0.00in /  0mm
10:24 82.6 °F /  28.1 °C 66.3 °F /  19.1 °C 29.78in /  1008.4hPa SSW 4.0mph /  6.4km/h 7.0mph /  11.3km/h 58% 0.00in /  0mm
10:29 82.6 °F /  28.1 °C 66.3 °F /  19.1 °C 29.78in /  1008.4hPa SSW 5.0mph /  8km/h 9.0mph /  14.5km/h 58% 0.00in /  0mm
10:34 82.7 °F /  28.2 °C 65.9 °F /  18.8 °C 29.78in /  1008.4hPa South 4.0mph /  6.4km/h 10.0mph /  16.1km/h 57% 0.00in /  0mm
10:39 82.8 °F /  28.2 °C 65.5 °F /  18.6 °C 29.78in /  1008.4hPa SSW 2.0mph /  3.2km/h 7.0mph /  11.3km/h 56% 0.00in /  0mm
10:44 83.8 °F /  28.8 °C 66.4 °F /  19.1 °C 29.78in /  1008.4hPa WSW 6.0mph /  9.7km/h 10.0mph /  16.1km/h 56% 0.00in /  0mm
10:49 84.0 °F /  28.9 °C 67.1 °F /  19.5 °C 29.78in /  1008.4hPa SW 4.0mph /  6.4km/h 10.0mph /  16.1km/h 57% 0.00in /  0mm
10:54 84.1 °F /  28.9 °C 66.2 °F /  19 °C 29.78in /  1008.4hPa SW 5.0mph /  8km/h 8.0mph /  12.9km/h 55% 0.00in /  0mm
10:59 84.8 °F /  29.3 °C 66.8 °F /  19.3 °C 29.78in /  1008.4hPa SW 5.0mph /  8km/h 10.0mph /  16.1km/h 55% 0.00in /  0mm
11:04 84.5 °F /  29.2 °C 66.6 °F /  19.2 °C 29.78in /  1008.4hPa SW 5.0mph /  8km/h 10.0mph /  16.1km/h 55% 0.00in /  0mm
11:09 84.8 °F /  29.3 °C 66.3 °F /  19.1 °C 29.78in /  1008.4hPa SSW 5.0mph /  8km/h 9.0mph /  14.5km/h 54% 0.00in /  0mm
11:14 84.8 °F /  29.3 °C 66.3 °F /  19.1 °C 29.78in /  1008.4hPa SSW 5.0mph /  8km/h 9.0mph /  14.5km/h 54% 0.00in /  0mm
11:19 84.8 °F /  29.3 °C 65.2 °F /  18.4 °C 29.78in /  1008.4hPa SSE 8.0mph /  12.9km/h 9.0mph /  14.5km/h 52% 0.00in /  0mm
11:24 85.1 °F /  29.5 °C 64.9 °F /  18.3 °C 29.78in /  1008.4hPa West 2.0mph /  3.2km/h 10.0mph /  16.1km/h 51% 0.00in /  0mm
11:29 85.0 °F /  29.4 °C 64.3 °F /  17.9 °C 29.78in /  1008.4hPa SW 4.0mph /  6.4km/h 14.0mph /  22.5km/h 50% 0.00in /  0mm
11:34 85.5 °F /  29.7 °C 67.0 °F /  19.4 °C 29.78in /  1008.4hPa SW 2.0mph /  3.2km/h 8.0mph /  12.9km/h 54% 0.00in /  0mm
11:39 86.4 °F /  30.2 °C 65.0 °F /  18.3 °C 29.78in /  1008.4hPa SW 3.0mph /  4.8km/h 8.0mph /  12.9km/h 49% 0.00in /  0mm
11:44 86.8 °F /  30.4 °C 65.3 °F /  18.5 °C 29.77in /  1008hPa SW 4.0mph /  6.4km/h 10.0mph /  16.1km/h 49% 0.00in /  0mm
11:49 86.6 °F /  30.3 °C 65.2 °F /  18.4 °C 29.77in /  1008hPa SW 5.0mph /  8km/h 10.0mph /  16.1km/h 49% 0.00in /  0mm
11:54 85.9 °F /  29.9 °C 65.7 °F /  18.7 °C 29.77in /  1008hPa SW 4.0mph /  6.4km/h 9.0mph /  14.5km/h 51% 0.00in /  0mm
11:59 86.5 °F /  30.3 °C 62.6 °F /  17 °C 29.77in /  1008hPa SW 2.0mph /  3.2km/h 9.0mph /  14.5km/h 45% 0.00in /  0mm
12:04 87.2 °F /  30.7 °C 65.7 °F /  18.7 °C 29.77in /  1008hPa SW 4.0mph /  6.4km/h 9.0mph /  14.5km/h 49% 0.00in /  0mm
12:09 86.1 °F /  30.1 °C 63.5 °F /  17.5 °C 29.77in /  1008hPa Calm   8.0mph /  12.9km/h 47% 0.00in /  0mm
12:14 86.8 °F /  30.4 °C 62.3 °F /  16.8 °C 29.77in /  1008hPa SW 4.0mph /  6.4km/h 10.0mph /  16.1km/h 44% 0.00in /  0mm
12:19 86.6 °F /  30.3 °C 64.0 °F /  17.8 °C 29.77in /  1008hPa SSW 4.0mph /  6.4km/h 11.0mph /  17.7km/h 47% 0.00in /  0mm
12:24 86.6 °F /  30.3 °C 62.7 °F /  17.1 °C 29.76in /  1007.7hPa SW 5.0mph /  8km/h 13.0mph /  20.9km/h 45% 0.00in /  0mm
12:29 86.7 °F /  30.4 °C 63.4 °F /  17.4 °C 29.76in /  1007.7hPa SW 5.0mph /  8km/h 13.0mph /  20.9km/h 46% 0.00in /  0mm
12:34 86.9 °F /  30.5 °C 63.0 °F /  17.2 °C 29.75in /  1007.3hPa SW 5.0mph /  8km/h 11.0mph /  17.7km/h 45% 0.00in /  0mm
12:39 86.7 °F /  30.4 °C 62.8 °F /  17.1 °C 29.75in /  1007.3hPa SW 8.0mph /  12.9km/h 8.0mph /  12.9km/h 45% 0.00in /  0mm
12:44 86.9 °F /  30.5 °C 62.4 °F /  16.9 °C 29.75in /  1007.3hPa SW 3.0mph /  4.8km/h 8.0mph /  12.9km/h 44% 0.00in /  0mm
12:49 87.2 °F /  30.7 °C 66.3 °F /  19.1 °C 29.74in /  1007hPa SE 3.0mph /  4.8km/h 8.0mph /  12.9km/h 50% 0.00in /  0mm
12:54 87.2 °F /  30.7 °C 67.4 °F /  19.7 °C 29.74in /  1007hPa SW 5.0mph /  8km/h 5.0mph /  8km/h 52% 0.00in /  0mm
12:59 87.2 °F /  30.7 °C 65.1 °F /  18.4 °C 29.74in /  1007hPa WSW 6.0mph /  9.7km/h 13.0mph /  20.9km/h 48% 0.00in /  0mm
13:04 87.7 °F /  30.9 °C 65.6 °F /  18.7 °C 29.74in /  1007hPa WSW 4.0mph /  6.4km/h 8.0mph /  12.9km/h 48% 0.00in /  0mm
13:09 87.2 °F /  30.7 °C 65.7 °F /  18.7 °C 29.74in /  1007hPa WSW 2.0mph /  3.2km/h 12.0mph /  19.3km/h 49% 0.00in /  0mm
13:14 87.0 °F /  30.6 °C 64.9 °F /  18.3 °C 29.73in /  1006.7hPa SW 4.0mph /  6.4km/h 12.0mph /  19.3km/h 48% 0.00in /  0mm
13:19 87.3 °F /  30.7 °C 65.2 °F /  18.4 °C 29.73in /  1006.7hPa SW 4.0mph /  6.4km/h 10.0mph /  16.1km/h 48% 0.00in /  0mm
13:24 87.0 °F /  30.6 °C 64.3 °F /  17.9 °C 29.73in /  1006.7hPa SW 4.0mph /  6.4km/h 11.0mph /  17.7km/h 47% 0.00in /  0mm
13:29 86.9 °F /  30.5 °C 66.6 °F /  19.2 °C 29.73in /  1006.7hPa SW 4.0mph /  6.4km/h 11.0mph /  17.7km/h 51% 0.00in /  0mm
13:34 87.7 °F /  30.9 °C 65.0 °F /  18.3 °C 29.73in /  1006.7hPa West 4.0mph /  6.4km/h 10.0mph /  16.1km/h 47% 0.00in /  0mm
13:39 88.4 °F /  31.3 °C 68.5 °F /  20.3 °C 29.73in /  1006.7hPa SSW 3.0mph /  4.8km/h 6.0mph /  9.7km/h 52% 0.00in /  0mm
13:44 87.4 °F /  30.8 °C 65.9 °F /  18.8 °C 29.73in /  1006.7hPa WSW 4.0mph /  6.4km/h 8.0mph /  12.9km/h 49% 0.00in /  0mm
13:49 87.9 °F /  31.1 °C 66.4 °F /  19.1 °C 29.73in /  1006.7hPa SW 4.0mph /  6.4km/h 9.0mph /  14.5km/h 49% 0.00in /  0mm
13:54 87.4 °F /  30.8 °C 65.9 °F /  18.8 °C 29.73in /  1006.7hPa SE 1.0mph /  1.6km/h 7.0mph /  11.3km/h 49% 0.00in /  0mm
13:59 88.9 °F /  31.6 °C 64.8 °F /  18.2 °C 29.73in /  1006.7hPa SE 3.0mph /  4.8km/h 7.0mph /  11.3km/h 45% 0.00in /  0mm
14:04 88.8 °F /  31.6 °C 66.0 °F /  18.9 °C 29.73in /  1006.7hPa SW 2.0mph /  3.2km/h 11.0mph /  17.7km/h 47% 0.00in /  0mm
14:09 88.3 °F /  31.3 °C 67.3 °F /  19.6 °C 29.73in /  1006.7hPa SSW 5.0mph /  8km/h 11.0mph /  17.7km/h 50% 0.00in /  0mm
14:14 88.3 °F /  31.3 °C 66.1 °F /  18.9 °C 29.72in /  1006.3hPa SSW 4.0mph /  6.4km/h 9.0mph /  14.5km/h 48% 0.00in /  0mm
14:19 89.0 °F /  31.7 °C 67.4 °F /  19.7 °C 29.73in /  1006.7hPa SSW 3.0mph /  4.8km/h 11.0mph /  17.7km/h 49% 0.00in /  0mm
14:24 88.4 °F /  31.3 °C 66.8 °F /  19.3 °C 29.73in /  1006.7hPa SSW 5.0mph /  8km/h 13.0mph /  20.9km/h 49% 0.00in /  0mm
14:29 88.9 °F /  31.6 °C 66.7 °F /  19.3 °C 29.73in /  1006.7hPa SW 3.0mph /  4.8km/h 7.0mph /  11.3km/h 48% 0.00in /  0mm
14:34 89.6 °F /  32 °C 66.7 °F /  19.3 °C 29.73in /  1006.7hPa SSE 2.0mph /  3.2km/h 11.0mph /  17.7km/h 47% 0.00in /  0mm
14:39 89.4 °F /  31.9 °C 65.3 °F /  18.5 °C 29.73in /  1006.7hPa SSW 8.0mph /  12.9km/h 10.0mph /  16.1km/h 45% 0.00in /  0mm
14:44 88.8 °F /  31.6 °C 63.4 °F /  17.4 °C 29.73in /  1006.7hPa SSW 6.0mph /  9.7km/h 12.0mph /  19.3km/h 43% 0.00in /  0mm
14:49 89.4 °F /  31.9 °C 65.9 °F /  18.8 °C 29.73in /  1006.7hPa SSW 5.0mph /  8km/h 12.0mph /  19.3km/h 46% 0.00in /  0mm
14:54 89.7 °F /  32.1 °C 66.2 °F /  19 °C 29.72in /  1006.3hPa SSW 6.0mph /  9.7km/h 9.0mph /  14.5km/h 46% 0.00in /  0mm
14:59 89.6 °F /  32 °C 66.7 °F /  19.3 °C 29.72in /  1006.3hPa South 7.0mph /  11.3km/h 11.0mph /  17.7km/h 47% 0.00in /  0mm
15:04 90.2 °F /  32.3 °C 64.7 °F /  18.2 °C 29.72in /  1006.3hPa SSW 7.0mph /  11.3km/h 10.0mph /  16.1km/h 43% 0.00in /  0mm
15:09 90.0 °F /  32.2 °C 63.8 °F /  17.7 °C 29.73in /  1006.7hPa South 5.0mph /  8km/h 10.0mph /  16.1km/h 42% 0.00in /  0mm
15:14 90.0 °F /  32.2 °C 65.2 °F /  18.4 °C 29.73in /  1006.7hPa SSW 6.0mph /  9.7km/h 11.0mph /  17.7km/h 44% 0.00in /  0mm
15:19 90.2 °F /  32.3 °C 64.0 °F /  17.8 °C 29.73in /  1006.7hPa SW 6.0mph /  9.7km/h 11.0mph /  17.7km/h 42% 0.00in /  0mm
15:24 90.5 °F /  32.5 °C 65.6 °F /  18.7 °C 29.72in /  1006.3hPa SW 10.0mph /  16.1km/h 10.0mph /  16.1km/h 44% 0.00in /  0mm
15:29 89.7 °F /  32.1 °C 66.2 °F /  19 °C 29.73in /  1006.7hPa SW 8.0mph /  12.9km/h 13.0mph /  20.9km/h 46% 0.00in /  0mm
15:34 89.4 °F /  31.9 °C 66.5 °F /  19.2 °C 29.72in /  1006.3hPa SSW 1.0mph /  1.6km/h 13.0mph /  20.9km/h 47% 0.00in /  0mm
15:39 90.0 °F /  32.2 °C 67.1 °F /  19.5 °C 29.73in /  1006.7hPa SW 5.0mph /  8km/h 13.0mph /  20.9km/h 47% 0.00in /  0mm
15:44 90.0 °F /  32.2 °C 67.1 °F /  19.5 °C 29.72in /  1006.3hPa WSW 5.0mph /  8km/h 10.0mph /  16.1km/h 47% 0.00in /  0mm
15:49 89.6 °F /  32 °C 65.4 °F /  18.6 °C 29.72in /  1006.3hPa WSW 6.0mph /  9.7km/h 11.0mph /  17.7km/h 45% 0.00in /  0mm
15:54 89.5 °F /  31.9 °C 66.6 °F /  19.2 °C 29.71in /  1006hPa WSW 6.0mph /  9.7km/h 11.0mph /  17.7km/h 47% 0.00in /  0mm
15:59 88.9 °F /  31.6 °C 66.1 °F /  18.9 °C 29.71in /  1006hPa SW 5.0mph /  8km/h 11.0mph /  17.7km/h 47% 0.00in /  0mm
16:04 88.0 °F /  31.1 °C 64.0 °F /  17.8 °C 29.72in /  1006.3hPa SSE 3.0mph /  4.8km/h 9.0mph /  14.5km/h 45% 0.00in /  0mm
16:09 88.4 °F /  31.3 °C 65.6 °F /  18.7 °C 29.72in /  1006.3hPa WSW 4.0mph /  6.4km/h 9.0mph /  14.5km/h 47% 0.00in /  0mm
16:14 88.5 °F /  31.4 °C 65.7 °F /  18.7 °C 29.72in /  1006.3hPa West 5.0mph /  8km/h 8.0mph /  12.9km/h 47% 0.00in /  0mm
16:19 88.7 °F /  31.5 °C 64.6 °F /  18.1 °C 29.72in /  1006.3hPa West 4.0mph /  6.4km/h 8.0mph /  12.9km/h 45% 0.00in /  0mm
16:24 88.1 °F /  31.2 °C 65.3 °F /  18.5 °C 29.72in /  1006.3hPa WSW 6.0mph /  9.7km/h 10.0mph /  16.1km/h 47% 0.00in /  0mm
16:29 88.9 °F /  31.6 °C 65.4 °F /  18.6 °C 29.72in /  1006.3hPa WSW 3.0mph /  4.8km/h 8.0mph /  12.9km/h 46% 0.00in /  0mm
16:34 89.7 °F /  32.1 °C 66.8 °F /  19.3 °C 29.72in /  1006.3hPa NW 4.0mph /  6.4km/h 8.0mph /  12.9km/h 47% 0.00in /  0mm
16:39 89.2 °F /  31.8 °C 65.1 °F /  18.4 °C 29.72in /  1006.3hPa WSW 5.0mph /  8km/h 8.0mph /  12.9km/h 45% 0.00in /  0mm
16:44 88.6 °F /  31.4 °C 65.2 °F /  18.4 °C 29.72in /  1006.3hPa SW 5.0mph /  8km/h 10.0mph /  16.1km/h 46% 0.00in /  0mm
16:49 89.1 °F /  31.7 °C 65.0 °F /  18.3 °C 29.72in /  1006.3hPa WSW 5.0mph /  8km/h 10.0mph /  16.1km/h 45% 0.00in /  0mm
16:54 88.6 °F /  31.4 °C 65.8 °F /  18.8 °C 29.72in /  1006.3hPa WSW 4.0mph /  6.4km/h 9.0mph /  14.5km/h 47% 0.00in /  0mm
16:59 88.8 °F /  31.6 °C 65.4 °F /  18.6 °C 29.72in /  1006.3hPa WSW 5.0mph /  8km/h 9.0mph /  14.5km/h 46% 0.00in /  0mm
17:04 88.8 °F /  31.6 °C 66.6 °F /  19.2 °C 29.71in /  1006hPa SSW 4.0mph /  6.4km/h 6.0mph /  9.7km/h 48% 0.00in /  0mm
17:09 88.9 °F /  31.6 °C 66.1 °F /  18.9 °C 29.71in /  1006hPa SSW 3.0mph /  4.8km/h 8.0mph /  12.9km/h 47% 0.00in /  0mm
17:14 88.7 °F /  31.5 °C 67.1 °F /  19.5 °C 29.71in /  1006hPa West 3.0mph /  4.8km/h 6.0mph /  9.7km/h 49% 0.00in /  0mm
17:19 89.1 °F /  31.7 °C 66.9 °F /  19.4 °C 29.71in /  1006hPa South 3.0mph /  4.8km/h 7.0mph /  11.3km/h 48% 0.00in /  0mm
17:24 88.9 °F /  31.6 °C 66.1 °F /  18.9 °C 29.71in /  1006hPa South 1.0mph /  1.6km/h 10.0mph /  16.1km/h 47% 0.00in /  0mm
17:29 88.9 °F /  31.6 °C 65.4 °F /  18.6 °C 29.71in /  1006hPa South 2.0mph /  3.2km/h 5.0mph /  8km/h 46% 0.00in /  0mm
17:34 88.8 °F /  31.6 °C 66.6 °F /  19.2 °C 29.71in /  1006hPa West 5.0mph /  8km/h 7.0mph /  11.3km/h 48% 0.00in /  0mm
17:39 88.9 °F /  31.6 °C 65.4 °F /  18.6 °C 29.71in /  1006hPa South 5.0mph /  8km/h 7.0mph /  11.3km/h 46% 0.00in /  0mm
17:44 88.6 °F /  31.4 °C 65.8 °F /  18.8 °C 29.70in /  1005.6hPa SSW 4.0mph /  6.4km/h 10.0mph /  16.1km/h 47% 0.00in /  0mm
17:49 88.6 °F /  31.4 °C 66.4 °F /  19.1 °C 29.70in /  1005.6hPa SW 3.0mph /  4.8km/h 10.0mph /  16.1km/h 48% 0.00in /  0mm
17:54 88.2 °F /  31.2 °C 66.6 °F /  19.2 °C 29.70in /  1005.6hPa SW 4.0mph /  6.4km/h 8.0mph /  12.9km/h 49% 0.00in /  0mm
17:59 88.5 °F /  31.4 °C 67.5 °F /  19.7 °C 29.70in /  1005.6hPa SSW 4.0mph /  6.4km/h 8.0mph /  12.9km/h 50% 0.00in /  0mm
18:04 88.4 °F /  31.3 °C 66.8 °F /  19.3 °C 29.70in /  1005.6hPa SW 4.0mph /  6.4km/h 8.0mph /  12.9km/h 49% 0.00in /  0mm
18:09 87.7 °F /  30.9 °C 66.8 °F /  19.3 °C 29.70in /  1005.6hPa SSE 2.0mph /  3.2km/h 8.0mph /  12.9km/h 50% 0.00in /  0mm
18:14 87.5 °F /  30.8 °C 66.6 °F /  19.2 °C 29.70in /  1005.6hPa SW 3.0mph /  4.8km/h 7.0mph /  11.3km/h 50% 0.00in /  0mm
18:19 86.9 °F /  30.5 °C 66.0 °F /  18.9 °C 29.70in /  1005.6hPa South 1.0mph /  1.6km/h 4.0mph /  6.4km/h 50% 0.00in /  0mm
18:24 86.4 °F /  30.2 °C 66.7 °F /  19.3 °C 29.70in /  1005.6hPa West 1.0mph /  1.6km/h 6.0mph /  9.7km/h 52% 0.00in /  0mm
18:29 86.8 °F /  30.4 °C 66.5 °F /  19.2 °C 29.70in /  1005.6hPa SW 6.0mph /  9.7km/h 6.0mph /  9.7km/h 51% 0.00in /  0mm
18:34 86.5 °F /  30.3 °C 66.2 °F /  19 °C 29.70in /  1005.6hPa SW 3.0mph /  4.8km/h 8.0mph /  12.9km/h 51% 0.00in /  0mm
18:39 86.4 °F /  30.2 °C 66.1 °F /  18.9 °C 29.70in /  1005.6hPa SW 3.0mph /  4.8km/h 8.0mph /  12.9km/h 51% 0.00in /  0mm
18:44 86.2 °F /  30.1 °C 67.1 °F /  19.5 °C 29.70in /  1005.6hPa SW 3.0mph /  4.8km/h 7.0mph /  11.3km/h 53% 0.00in /  0mm
18:49 86.1 °F /  30.1 °C 66.4 °F /  19.1 °C 29.70in /  1005.6hPa SW 4.0mph /  6.4km/h 7.0mph /  11.3km/h 52% 0.00in /  0mm
18:54 85.9 °F /  29.9 °C 66.2 °F /  19 °C 29.70in /  1005.6hPa SW 3.0mph /  4.8km/h 7.0mph /  11.3km/h 52% 0.00in /  0mm
18:59 85.4 °F /  29.7 °C 66.9 °F /  19.4 °C 29.70in /  1005.6hPa SW 3.0mph /  4.8km/h 5.0mph /  8km/h 54% 0.00in /  0mm
19:04 85.3 °F /  29.6 °C 66.8 °F /  19.3 °C 29.70in /  1005.6hPa SW 4.0mph /  6.4km/h 5.0mph /  8km/h 54% 0.00in /  0mm
19:09 85.3 °F /  29.6 °C 66.8 °F /  19.3 °C 29.70in /  1005.6hPa SW 3.0mph /  4.8km/h 5.0mph /  8km/h 54% 0.00in /  0mm
19:14 85.2 °F /  29.6 °C 66.7 °F /  19.3 °C 29.70in /  1005.6hPa SW 4.0mph /  6.4km/h 6.0mph /  9.7km/h 54% 0.00in /  0mm
19:19 85.3 °F /  29.6 °C 67.3 °F /  19.6 °C 29.69in /  1005.3hPa SW 2.0mph /  3.2km/h 5.0mph /  8km/h 55% 0.00in /  0mm
19:24 85.2 °F /  29.6 °C 66.7 °F /  19.3 °C 29.69in /  1005.3hPa SW 2.0mph /  3.2km/h 4.0mph /  6.4km/h 54% 0.00in /  0mm
19:29 85.2 °F /  29.6 °C 66.7 °F /  19.3 °C 29.69in /  1005.3hPa SSW 2.0mph /  3.2km/h 5.0mph /  8km/h 54% 0.00in /  0mm
19:34 85.4 °F /  29.7 °C 66.9 °F /  19.4 °C 29.69in /  1005.3hPa SW 2.0mph /  3.2km/h 3.0mph /  4.8km/h 54% 0.00in /  0mm
19:39 85.3 °F /  29.6 °C 67.3 °F /  19.6 °C 29.69in /  1005.3hPa SSW 2.0mph /  3.2km/h 4.0mph /  6.4km/h 55% 0.00in /  0mm
19:44 85.1 °F /  29.5 °C 67.6 °F /  19.8 °C 29.69in /  1005.3hPa SSW 2.0mph /  3.2km/h 5.0mph /  8km/h 56% 0.00in /  0mm
19:49 84.9 °F /  29.4 °C 67.5 °F /  19.7 °C 29.69in /  1005.3hPa SSW 2.0mph /  3.2km/h 6.0mph /  9.7km/h 56% 0.00in /  0mm
19:54 84.7 °F /  29.3 °C 66.7 °F /  19.3 °C 29.69in /  1005.3hPa SSW 2.0mph /  3.2km/h 6.0mph /  9.7km/h 55% 0.00in /  0mm
19:59 84.5 °F /  29.2 °C 66.6 °F /  19.2 °C 29.69in /  1005.3hPa SSW 2.0mph /  3.2km/h 7.0mph /  11.3km/h 55% 0.00in /  0mm
20:04 84.3 °F /  29.1 °C 66.4 °F /  19.1 °C 29.68in /  1005hPa South 6.0mph /  9.7km/h 8.0mph /  12.9km/h 55% 0.00in /  0mm
20:09 84.3 °F /  29.1 °C 66.4 °F /  19.1 °C 29.68in /  1005hPa SSW 4.0mph /  6.4km/h 8.0mph /  12.9km/h 55% 0.00in /  0mm
20:14 84.1 °F /  28.9 °C 66.2 °F /  19 °C 29.68in /  1005hPa SSW 2.0mph /  3.2km/h 6.0mph /  9.7km/h 55% 0.00in /  0mm
20:19 83.9 °F /  28.8 °C 66.0 °F /  18.9 °C 29.68in /  1005hPa South 1.0mph /  1.6km/h 6.0mph /  9.7km/h 55% 0.00in /  0mm
20:24 83.8 °F /  28.8 °C 65.9 °F /  18.8 °C 29.68in /  1005hPa SSE 5.0mph /  8km/h 9.0mph /  14.5km/h 55% 0.00in /  0mm
20:29 83.6 °F /  28.7 °C 66.2 °F /  19 °C 29.68in /  1005hPa SSW 3.0mph /  4.8km/h 5.0mph /  8km/h 56% 0.00in /  0mm
20:34 83.3 °F /  28.5 °C 66.0 °F /  18.9 °C 29.68in /  1005hPa SSW 1.0mph /  1.6km/h 5.0mph /  8km/h 56% 0.00in /  0mm
20:39 83.1 °F /  28.4 °C 65.8 °F /  18.8 °C 29.68in /  1005hPa SSW 2.0mph /  3.2km/h 5.0mph /  8km/h 56% 0.00in /  0mm
20:44 82.9 °F /  28.3 °C 66.1 °F /  18.9 °C 29.69in /  1005.3hPa SSW 2.0mph /  3.2km/h 7.0mph /  11.3km/h 57% 0.00in /  0mm
20:49 82.7 °F /  28.2 °C 65.9 °F /  18.8 °C 29.69in /  1005.3hPa South 3.0mph /  4.8km/h 7.0mph /  11.3km/h 57% 0.00in /  0mm
20:54 82.6 °F /  28.1 °C 66.3 °F /  19.1 °C 29.69in /  1005.3hPa South 2.0mph /  3.2km/h 7.0mph /  11.3km/h 58% 0.00in /  0mm
20:59 82.4 °F /  28 °C 66.1 °F /  18.9 °C 29.69in /  1005.3hPa South 1.0mph /  1.6km/h 7.0mph /  11.3km/h 58% 0.00in /  0mm
21:04 82.4 °F /  28 °C 65.6 °F /  18.7 °C 29.69in /  1005.3hPa SSW 2.0mph /  3.2km/h 4.0mph /  6.4km/h 57% 0.00in /  0mm
21:09 82.2 °F /  27.9 °C 65.4 °F /  18.6 °C 29.69in /  1005.3hPa SSW 2.0mph /  3.2km/h 6.0mph /  9.7km/h 57% 0.00in /  0mm
21:14 82.1 °F /  27.8 °C 65.9 °F /  18.8 °C 29.69in /  1005.3hPa SSW 5.0mph /  8km/h 6.0mph /  9.7km/h 58% 0.00in /  0mm
21:19 81.8 °F /  27.7 °C 65.6 °F /  18.7 °C 29.69in /  1005.3hPa SSW 3.0mph /  4.8km/h 7.0mph /  11.3km/h 58% 0.00in /  0mm
21:24 81.7 °F /  27.6 °C 65.5 °F /  18.6 °C 29.69in /  1005.3hPa SSW 2.0mph /  3.2km/h 5.0mph /  8km/h 58% 0.00in /  0mm
21:29 81.5 °F /  27.5 °C 65.8 °F /  18.8 °C 29.70in /  1005.6hPa SSW 3.0mph /  4.8km/h 6.0mph /  9.7km/h 59% 0.00in /  0mm
21:34 81.4 °F /  27.4 °C 65.7 °F /  18.7 °C 29.70in /  1005.6hPa SSW 3.0mph /  4.8km/h 6.0mph /  9.7km/h 59% 0.00in /  0mm
21:39 81.3 °F /  27.4 °C 65.6 °F /  18.7 °C 29.70in /  1005.6hPa SSW 2.0mph /  3.2km/h 6.0mph /  9.7km/h 59% 0.00in /  0mm
21:44 81.1 °F /  27.3 °C 65.4 °F /  18.6 °C 29.70in /  1005.6hPa SSW 2.0mph /  3.2km/h 6.0mph /  9.7km/h 59% 0.00in /  0mm
21:49 80.7 °F /  27.1 °C 65.5 °F /  18.6 °C 29.71in /  1006hPa South 3.0mph /  4.8km/h 4.0mph /  6.4km/h 60% 0.00in /  0mm
21:54 80.5 °F /  26.9 °C 65.3 °F /  18.5 °C 29.71in /  1006hPa South 1.0mph /  1.6km/h 5.0mph /  8km/h 60% 0.00in /  0mm
21:59 80.4 °F /  26.9 °C 65.7 °F /  18.7 °C 29.71in /  1006hPa SSW 2.0mph /  3.2km/h 5.0mph /  8km/h 61% 0.00in /  0mm
22:04 80.2 °F /  26.8 °C 65.5 °F /  18.6 °C 29.71in /  1006hPa SSW 1.0mph /  1.6km/h 7.0mph /  11.3km/h 61% 0.00in /  0mm
22:09 79.9 °F /  26.6 °C 65.2 °F /  18.4 °C 29.71in /  1006hPa South 2.0mph /  3.2km/h 7.0mph /  11.3km/h 61% 0.00in /  0mm
22:14 79.8 °F /  26.6 °C 65.2 °F /  18.4 °C 29.71in /  1006hPa South 2.0mph /  3.2km/h 6.0mph /  9.7km/h 61% 0.00in /  0mm
22:19 79.7 °F /  26.5 °C 65.1 °F /  18.4 °C 29.72in /  1006.3hPa SSW 2.0mph /  3.2km/h 4.0mph /  6.4km/h 61% 0.00in /  0mm
22:24 79.7 °F /  26.5 °C 65.1 °F /  18.4 °C 29.72in /  1006.3hPa SSW 2.0mph /  3.2km/h 5.0mph /  8km/h 61% 0.00in /  0mm
22:29 79.7 °F /  26.5 °C 65.1 °F /  18.4 °C 29.72in /  1006.3hPa South 2.0mph /  3.2km/h 5.0mph /  8km/h 61% 0.00in /  0mm
22:34 79.6 °F /  26.4 °C 65.0 °F /  18.3 °C 29.72in /  1006.3hPa South 6.0mph /  9.7km/h 7.0mph /  11.3km/h 61% 0.00in /  0mm
22:39 79.5 °F /  26.4 °C 65.3 °F /  18.5 °C 29.71in /  1006hPa South 3.0mph /  4.8km/h 7.0mph /  11.3km/h 62% 0.00in /  0mm
22:44 79.2 °F /  26.2 °C 65.1 °F /  18.4 °C 29.71in /  1006hPa South 3.0mph /  4.8km/h 7.0mph /  11.3km/h 62% 0.00in /  0mm
22:49 79.1 °F /  26.2 °C 65.4 °F /  18.6 °C 29.71in /  1006hPa South 2.0mph /  3.2km/h 5.0mph /  8km/h 63% 0.00in /  0mm
22:54 79.0 °F /  26.1 °C 65.3 °F /  18.5 °C 29.71in /  1006hPa South 3.0mph /  4.8km/h 6.0mph /  9.7km/h 63% 0.00in /  0mm
22:59 78.9 °F /  26.1 °C 65.2 °F /  18.4 °C 29.71in /  1006hPa SSE 3.0mph /  4.8km/h 7.0mph /  11.3km/h 63% 0.00in /  0mm
23:04 78.9 °F /  26.1 °C 65.2 °F /  18.4 °C 29.71in /  1006hPa SSW 2.0mph /  3.2km/h 5.0mph /  8km/h 63% 0.00in /  0mm
23:09 78.8 °F /  26 °C 65.1 °F /  18.4 °C 29.71in /  1006hPa South 2.0mph /  3.2km/h 5.0mph /  8km/h 63% 0.00in /  0mm
23:14 78.8 °F /  26 °C 65.1 °F /  18.4 °C 29.71in /  1006hPa South 3.0mph /  4.8km/h 6.0mph /  9.7km/h 63% 0.00in /  0mm
23:19 78.7 °F /  25.9 °C 65.0 °F /  18.3 °C 29.71in /  1006hPa South 3.0mph /  4.8km/h 6.0mph /  9.7km/h 63% 0.00in /  0mm
23:24 78.7 °F /  25.9 °C 65.0 °F /  18.3 °C 29.71in /  1006hPa South 2.0mph /  3.2km/h 6.0mph /  9.7km/h 63% 0.00in /  0mm
23:29 78.5 °F /  25.8 °C 64.9 °F /  18.3 °C 29.71in /  1006hPa South 2.0mph /  3.2km/h 6.0mph /  9.7km/h 63% 0.00in /  0mm
23:34 78.2 °F /  25.7 °C 65.0 °F /  18.3 °C 29.71in /  1006hPa South 2.0mph /  3.2km/h 3.0mph /  4.8km/h 64% 0.00in /  0mm
23:39 78.0 °F /  25.6 °C 65.3 °F /  18.5 °C 29.71in /  1006hPa South 1.0mph /  1.6km/h 4.0mph /  6.4km/h 65% 0.00in /  0mm
23:44 78.0 °F /  25.6 °C 65.7 °F /  18.7 °C 29.70in /  1005.6hPa South 4.0mph /  6.4km/h 6.0mph /  9.7km/h 66% 0.00in /  0mm
23:49 78.2 °F /  25.7 °C 65.9 °F /  18.8 °C 29.70in /  1005.6hPa West 1.0mph /  1.6km/h 7.0mph /  11.3km/h 66% 0.00in /  0mm
23:54 78.2 °F /  25.7 °C 66.3 °F /  19.1 °C 29.70in /  1005.6hPa SSE 3.0mph /  4.8km/h 9.0mph /  14.5km/h 67% 0.00in /  0mm
23:59 78.4 °F /  25.8 °C 66.5 °F /  19.2 °C 29.70in /  1005.6hPa SSW 4.0mph /  6.4km/h 9.0mph /  14.5km/h 67% 0.00in /  0mm
Buffalo, New York, USA
Compliments of Weather Underground - 2.5 mb